sensor_id;sensor_type;location;lat;lon;timestamp;P1;durP1;ratioP1;P2;durP2;ratioP2
10910;SDS011;5508;49.150;11.030;2022-12-07T00:04:14;10.33;;;9.13;;
10910;SDS011;5508;49.150;11.030;2022-12-07T00:07:16;15.27;;;11.13;;
10910;SDS011;5508;49.150;11.030;2022-12-07T00:10:17;11.87;;;9.53;;
10910;SDS011;5508;49.150;11.030;2022-12-07T00:13:17;15.03;;;10.37;;
10910;SDS011;5508;49.150;11.030;2022-12-07T00:16:19;11.17;;;9.93;;
10910;SDS011;5508;49.150;11.030;2022-12-07T00:19:20;12.37;;;10.17;;
10910;SDS011;5508;49.150;11.030;2022-12-07T00:22:21;13.60;;;11.80;;
10910;SDS011;5508;49.150;11.030;2022-12-07T00:25:22;12.00;;;10.60;;
10910;SDS011;5508;49.150;11.030;2022-12-07T00:28:22;14.13;;;10.03;;
10910;SDS011;5508;49.150;11.030;2022-12-07T00:31:24;13.00;;;11.00;;
10910;SDS011;5508;49.150;11.030;2022-12-07T00:34:27;12.63;;;11.00;;
10910;SDS011;5508;49.150;11.030;2022-12-07T00:37:28;12.03;;;10.37;;
10910;SDS011;5508;49.150;11.030;2022-12-07T00:40:28;13.97;;;11.83;;
10910;SDS011;5508;49.150;11.030;2022-12-07T00:43:29;14.07;;;11.03;;
10910;SDS011;5508;49.150;11.030;2022-12-07T00:46:30;14.10;;;12.07;;
10910;SDS011;5508;49.150;11.030;2022-12-07T00:49:30;12.43;;;10.30;;
10910;SDS011;5508;49.150;11.030;2022-12-07T00:52:31;12.47;;;10.77;;
10910;SDS011;5508;49.150;11.030;2022-12-07T00:55:35;13.00;;;11.07;;
10910;SDS011;5508;49.150;11.030;2022-12-07T00:58:36;13.23;;;10.50;;
10910;SDS011;5508;49.150;11.030;2022-12-07T01:01:36;14.13;;;11.37;;
10910;SDS011;5508;49.150;11.030;2022-12-07T01:04:37;11.27;;;10.00;;
10910;SDS011;5508;49.150;11.030;2022-12-07T01:07:37;11.93;;;10.07;;
10910;SDS011;5508;49.150;11.030;2022-12-07T01:10:38;14.60;;;10.93;;
10910;SDS011;5508;49.150;11.030;2022-12-07T01:13:38;13.47;;;10.67;;
10910;SDS011;5508;49.150;11.030;2022-12-07T01:16:39;12.97;;;10.73;;
10910;SDS011;5508;49.150;11.030;2022-12-07T01:19:40;13.57;;;11.10;;
10910;SDS011;5508;49.150;11.030;2022-12-07T01:22:41;11.57;;;10.27;;
10910;SDS011;5508;49.150;11.030;2022-12-07T01:25:43;13.43;;;11.23;;
10910;SDS011;5508;49.150;11.030;2022-12-07T01:28:45;15.47;;;12.50;;
10910;SDS011;5508;49.150;11.030;2022-12-07T01:31:48;13.40;;;11.60;;
10910;SDS011;5508;49.150;11.030;2022-12-07T01:34:49;16.30;;;12.10;;
10910;SDS011;5508;49.150;11.030;2022-12-07T01:37:49;13.73;;;11.00;;
10910;SDS011;5508;49.150;11.030;2022-12-07T01:40:54;17.37;;;12.23;;
10910;SDS011;5508;49.150;11.030;2022-12-07T01:47:16;14.30;;;12.80;;
10910;SDS011;5508;49.150;11.030;2022-12-07T01:50:17;14.23;;;11.57;;
10910;SDS011;5508;49.150;11.030;2022-12-07T01:53:19;15.17;;;12.43;;
10910;SDS011;5508;49.150;11.030;2022-12-07T01:56:20;13.63;;;12.20;;
10910;SDS011;5508;49.150;11.030;2022-12-07T01:59:24;13.67;;;11.83;;
10910;SDS011;5508;49.150;11.030;2022-12-07T02:02:26;13.10;;;11.70;;
10910;SDS011;5508;49.150;11.030;2022-12-07T02:05:32;14.10;;;11.47;;
10910;SDS011;5508;49.150;11.030;2022-12-07T02:08:34;15.67;;;11.93;;
10910;SDS011;5508;49.150;11.030;2022-12-07T02:11:35;14.30;;;11.73;;
10910;SDS011;5508;49.150;11.030;2022-12-07T02:14:36;12.83;;;11.10;;
10910;SDS011;5508;49.150;11.030;2022-12-07T02:17:40;13.30;;;11.20;;
10910;SDS011;5508;49.150;11.030;2022-12-07T02:24:38;16.10;;;12.00;;
10910;SDS011;5508;49.150;11.030;2022-12-07T02:31:36;16.27;;;12.77;;
10910;SDS011;5508;49.150;11.030;2022-12-07T02:34:44;16.00;;;12.70;;
10910;SDS011;5508;49.150;11.030;2022-12-07T02:37:53;16.20;;;13.13;;
10910;SDS011;5508;49.150;11.030;2022-12-07T02:44:08;16.90;;;13.30;;
10910;SDS011;5508;49.150;11.030;2022-12-07T02:47:13;15.80;;;13.37;;
10910;SDS011;5508;49.150;11.030;2022-12-07T02:50:18;17.03;;;13.50;;
10910;SDS011;5508;49.150;11.030;2022-12-07T03:03:12;18.23;;;13.33;;
10910;SDS011;5508;49.150;11.030;2022-12-07T03:06:27;19.73;;;13.97;;
10910;SDS011;5508;49.150;11.030;2022-12-07T03:09:36;19.00;;;14.27;;
10910;SDS011;5508;49.150;11.030;2022-12-07T03:12:44;19.07;;;14.83;;
10910;SDS011;5508;49.150;11.030;2022-12-07T03:16:03;18.90;;;14.20;;
10910;SDS011;5508;49.150;11.030;2022-12-07T03:19:06;17.17;;;13.67;;
10910;SDS011;5508;49.150;11.030;2022-12-07T03:22:10;17.90;;;14.77;;
10910;SDS011;5508;49.150;11.030;2022-12-07T03:25:13;19.23;;;14.50;;
10910;SDS011;5508;49.150;11.030;2022-12-07T03:28:17;19.07;;;14.53;;
10910;SDS011;5508;49.150;11.030;2022-12-07T03:31:25;18.00;;;13.13;;
10910;SDS011;5508;49.150;11.030;2022-12-07T03:34:34;20.53;;;15.50;;
10910;SDS011;5508;49.150;11.030;2022-12-07T03:37:42;20.43;;;13.93;;
10910;SDS011;5508;49.150;11.030;2022-12-07T03:40:57;18.63;;;14.50;;
10910;SDS011;5508;49.150;11.030;2022-12-07T03:43:59;20.33;;;14.90;;
10910;SDS011;5508;49.150;11.030;2022-12-07T03:50:18;19.83;;;14.60;;
10910;SDS011;5508;49.150;11.030;2022-12-07T03:53:34;23.57;;;15.43;;
10910;SDS011;5508;49.150;11.030;2022-12-07T03:56:40;26.47;;;16.97;;
10910;SDS011;5508;49.150;11.030;2022-12-07T03:59:43;22.00;;;15.10;;
10910;SDS011;5508;49.150;11.030;2022-12-07T04:02:44;19.70;;;14.57;;
10910;SDS011;5508;49.150;11.030;2022-12-07T04:05:45;24.37;;;18.10;;
10910;SDS011;5508;49.150;11.030;2022-12-07T04:08:46;21.27;;;16.17;;
10910;SDS011;5508;49.150;11.030;2022-12-07T04:11:46;19.00;;;14.63;;
10910;SDS011;5508;49.150;11.030;2022-12-07T04:14:47;21.00;;;15.60;;
10910;SDS011;5508;49.150;11.030;2022-12-07T04:17:48;20.40;;;15.13;;
10910;SDS011;5508;49.150;11.030;2022-12-07T04:20:48;21.47;;;15.43;;
10910;SDS011;5508;49.150;11.030;2022-12-07T04:23:49;23.20;;;17.17;;
10910;SDS011;5508;49.150;11.030;2022-12-07T04:26:49;21.07;;;14.87;;
10910;SDS011;5508;49.150;11.030;2022-12-07T04:29:50;20.80;;;14.80;;
10910;SDS011;5508;49.150;11.030;2022-12-07T04:32:51;24.07;;;17.50;;
10910;SDS011;5508;49.150;11.030;2022-12-07T04:35:52;20.73;;;14.67;;
10910;SDS011;5508;49.150;11.030;2022-12-07T04:38:53;19.97;;;15.20;;
10910;SDS011;5508;49.150;11.030;2022-12-07T04:41:55;21.20;;;15.47;;
10910;SDS011;5508;49.150;11.030;2022-12-07T04:44:56;22.70;;;15.40;;
10910;SDS011;5508;49.150;11.030;2022-12-07T04:47:56;24.73;;;15.77;;
10910;SDS011;5508;49.150;11.030;2022-12-07T04:50:57;22.97;;;15.33;;
10910;SDS011;5508;49.150;11.030;2022-12-07T04:53:57;23.57;;;17.53;;
10910;SDS011;5508;49.150;11.030;2022-12-07T04:56:58;26.93;;;17.43;;
10910;SDS011;5508;49.150;11.030;2022-12-07T04:59:59;34.77;;;23.27;;
10910;SDS011;5508;49.150;11.030;2022-12-07T05:02:59;30.90;;;19.37;;
10910;SDS011;5508;49.150;11.030;2022-12-07T05:06:00;24.40;;;16.17;;
10910;SDS011;5508;49.150;11.030;2022-12-07T05:09:01;26.50;;;17.83;;
10910;SDS011;5508;49.150;11.030;2022-12-07T05:12:03;27.27;;;18.33;;
10910;SDS011;5508;49.150;11.030;2022-12-07T05:15:04;23.03;;;16.77;;
10910;SDS011;5508;49.150;11.030;2022-12-07T05:18:04;23.90;;;16.57;;
10910;SDS011;5508;49.150;11.030;2022-12-07T05:21:05;23.17;;;17.00;;
10910;SDS011;5508;49.150;11.030;2022-12-07T05:24:06;21.40;;;15.70;;
10910;SDS011;5508;49.150;11.030;2022-12-07T05:27:08;25.43;;;16.77;;
10910;SDS011;5508;49.150;11.030;2022-12-07T05:30:09;23.63;;;17.33;;
10910;SDS011;5508;49.150;11.030;2022-12-07T05:33:10;28.63;;;17.03;;
10910;SDS011;5508;49.150;11.030;2022-12-07T05:36:10;26.97;;;19.30;;
10910;SDS011;5508;49.150;11.030;2022-12-07T05:39:11;26.40;;;17.90;;
10910;SDS011;5508;49.150;11.030;2022-12-07T05:42:11;21.40;;;15.90;;
10910;SDS011;5508;49.150;11.030;2022-12-07T05:45:12;24.17;;;17.33;;
10910;SDS011;5508;49.150;11.030;2022-12-07T05:48:13;24.23;;;16.00;;
10910;SDS011;5508;49.150;11.030;2022-12-07T05:51:13;26.93;;;16.07;;
10910;SDS011;5508;49.150;11.030;2022-12-07T05:54:14;28.53;;;20.40;;
10910;SDS011;5508;49.150;11.030;2022-12-07T05:57:14;29.27;;;20.70;;
10910;SDS011;5508;49.150;11.030;2022-12-07T06:00:15;47.90;;;30.67;;
10910;SDS011;5508;49.150;11.030;2022-12-07T06:03:16;39.60;;;25.50;;
10910;SDS011;5508;49.150;11.030;2022-12-07T06:06:17;124.30;;;67.30;;
10910;SDS011;5508;49.150;11.030;2022-12-07T06:09:18;53.80;;;35.43;;
10910;SDS011;5508;49.150;11.030;2022-12-07T06:12:19;39.77;;;26.37;;
10910;SDS011;5508;49.150;11.030;2022-12-07T06:15:39;31.70;;;21.63;;
10910;SDS011;5508;49.150;11.030;2022-12-07T06:18:40;29.30;;;19.63;;
10910;SDS011;5508;49.150;11.030;2022-12-07T06:21:40;28.90;;;19.83;;
10910;SDS011;5508;49.150;11.030;2022-12-07T06:24:41;27.43;;;19.70;;
10910;SDS011;5508;49.150;11.030;2022-12-07T06:27:42;26.43;;;19.03;;
10910;SDS011;5508;49.150;11.030;2022-12-07T06:30:43;25.17;;;18.20;;
10910;SDS011;5508;49.150;11.030;2022-12-07T06:33:43;31.03;;;21.63;;
10910;SDS011;5508;49.150;11.030;2022-12-07T06:36:44;27.93;;;18.53;;
10910;SDS011;5508;49.150;11.030;2022-12-07T06:39:47;37.83;;;23.50;;
10910;SDS011;5508;49.150;11.030;2022-12-07T06:42:48;28.87;;;20.33;;
10910;SDS011;5508;49.150;11.030;2022-12-07T06:45:48;28.47;;;19.23;;
10910;SDS011;5508;49.150;11.030;2022-12-07T06:48:49;24.87;;;17.13;;
10910;SDS011;5508;49.150;11.030;2022-12-07T06:51:49;26.43;;;17.27;;
10910;SDS011;5508;49.150;11.030;2022-12-07T06:54:50;24.93;;;17.10;;
10910;SDS011;5508;49.150;11.030;2022-12-07T06:57:51;22.90;;;16.97;;
10910;SDS011;5508;49.150;11.030;2022-12-07T07:00:51;24.50;;;17.17;;
10910;SDS011;5508;49.150;11.030;2022-12-07T07:03:52;27.00;;;17.27;;
10910;SDS011;5508;49.150;11.030;2022-12-07T07:06:52;25.93;;;17.60;;
10910;SDS011;5508;49.150;11.030;2022-12-07T07:09:53;23.73;;;16.73;;
10910;SDS011;5508;49.150;11.030;2022-12-07T07:12:53;24.80;;;17.57;;
10910;SDS011;5508;49.150;11.030;2022-12-07T07:15:54;24.73;;;17.40;;
10910;SDS011;5508;49.150;11.030;2022-12-07T07:18:55;22.60;;;17.17;;
10910;SDS011;5508;49.150;11.030;2022-12-07T07:21:56;22.87;;;15.40;;
10910;SDS011;5508;49.150;11.030;2022-12-07T07:24:56;23.80;;;16.77;;
10910;SDS011;5508;49.150;11.030;2022-12-07T07:27:57;24.70;;;16.90;;
10910;SDS011;5508;49.150;11.030;2022-12-07T07:30:58;28.53;;;18.67;;
10910;SDS011;5508;49.150;11.030;2022-12-07T07:33:58;25.77;;;18.00;;
10910;SDS011;5508;49.150;11.030;2022-12-07T07:36:59;33.37;;;23.03;;
10910;SDS011;5508;49.150;11.030;2022-12-07T07:39:59;39.73;;;28.20;;
10910;SDS011;5508;49.150;11.030;2022-12-07T07:43:00;34.73;;;23.67;;
10910;SDS011;5508;49.150;11.030;2022-12-07T07:46:01;47.13;;;32.73;;
10910;SDS011;5508;49.150;11.030;2022-12-07T07:49:01;29.33;;;20.73;;
10910;SDS011;5508;49.150;11.030;2022-12-07T07:52:02;32.90;;;23.67;;
10910;SDS011;5508;49.150;11.030;2022-12-07T07:55:03;47.47;;;31.17;;
10910;SDS011;5508;49.150;11.030;2022-12-07T07:58:05;38.90;;;26.97;;
10910;SDS011;5508;49.150;11.030;2022-12-07T08:01:06;27.43;;;20.07;;
10910;SDS011;5508;49.150;11.030;2022-12-07T08:04:06;39.03;;;24.83;;
10910;SDS011;5508;49.150;11.030;2022-12-07T08:07:07;26.63;;;18.30;;
10910;SDS011;5508;49.150;11.030;2022-12-07T08:10:09;24.67;;;17.33;;
10910;SDS011;5508;49.150;11.030;2022-12-07T08:13:12;24.47;;;17.80;;
10910;SDS011;5508;49.150;11.030;2022-12-07T08:16:16;25.47;;;17.70;;
10910;SDS011;5508;49.150;11.030;2022-12-07T08:19:17;26.63;;;17.20;;
10910;SDS011;5508;49.150;11.030;2022-12-07T08:22:17;28.87;;;20.83;;
10910;SDS011;5508;49.150;11.030;2022-12-07T08:25:19;28.80;;;20.67;;
10910;SDS011;5508;49.150;11.030;2022-12-07T08:28:20;41.67;;;27.37;;
10910;SDS011;5508;49.150;11.030;2022-12-07T08:31:21;26.30;;;18.60;;
10910;SDS011;5508;49.150;11.030;2022-12-07T08:34:21;37.03;;;23.77;;
10910;SDS011;5508;49.150;11.030;2022-12-07T08:37:22;24.40;;;17.30;;
10910;SDS011;5508;49.150;11.030;2022-12-07T08:40:23;24.83;;;17.97;;
10910;SDS011;5508;49.150;11.030;2022-12-07T08:43:24;32.00;;;21.57;;
10910;SDS011;5508;49.150;11.030;2022-12-07T08:46:26;20.67;;;14.83;;
10910;SDS011;5508;49.150;11.030;2022-12-07T08:49:39;19.87;;;14.50;;
10910;SDS011;5508;49.150;11.030;2022-12-07T08:52:42;84.87;;;42.40;;
10910;SDS011;5508;49.150;11.030;2022-12-07T08:55:44;84.43;;;44.37;;
10910;SDS011;5508;49.150;11.030;2022-12-07T08:58:46;23.67;;;16.13;;
10910;SDS011;5508;49.150;11.030;2022-12-07T09:01:47;79.50;;;39.97;;
10910;SDS011;5508;49.150;11.030;2022-12-07T09:04:47;82.40;;;47.93;;
10910;SDS011;5508;49.150;11.030;2022-12-07T09:07:48;84.53;;;51.00;;
10910;SDS011;5508;49.150;11.030;2022-12-07T09:10:52;53.27;;;31.83;;
10910;SDS011;5508;49.150;11.030;2022-12-07T09:13:53;19.23;;;13.87;;
10910;SDS011;5508;49.150;11.030;2022-12-07T09:16:53;27.33;;;19.83;;
10910;SDS011;5508;49.150;11.030;2022-12-07T09:19:54;22.77;;;16.50;;
10910;SDS011;5508;49.150;11.030;2022-12-07T09:22:54;20.40;;;15.53;;
10910;SDS011;5508;49.150;11.030;2022-12-07T09:25:58;20.40;;;15.00;;
10910;SDS011;5508;49.150;11.030;2022-12-07T09:29:02;21.07;;;14.47;;
10910;SDS011;5508;49.150;11.030;2022-12-07T09:32:03;16.57;;;12.33;;
10910;SDS011;5508;49.150;11.030;2022-12-07T09:35:04;22.30;;;14.70;;
10910;SDS011;5508;49.150;11.030;2022-12-07T09:38:04;21.03;;;14.57;;
10910;SDS011;5508;49.150;11.030;2022-12-07T09:41:06;18.00;;;13.60;;
10910;SDS011;5508;49.150;11.030;2022-12-07T09:44:11;19.10;;;14.60;;
10910;SDS011;5508;49.150;11.030;2022-12-07T09:47:14;18.17;;;12.80;;
10910;SDS011;5508;49.150;11.030;2022-12-07T09:50:15;16.17;;;12.47;;
10910;SDS011;5508;49.150;11.030;2022-12-07T09:53:28;16.63;;;13.13;;
10910;SDS011;5508;49.150;11.030;2022-12-07T09:56:34;23.30;;;15.87;;
10910;SDS011;5508;49.150;11.030;2022-12-07T09:59:34;15.03;;;11.37;;
10910;SDS011;5508;49.150;11.030;2022-12-07T10:02:36;13.90;;;10.77;;
10910;SDS011;5508;49.150;11.030;2022-12-07T10:05:43;17.00;;;12.17;;
10910;SDS011;5508;49.150;11.030;2022-12-07T10:08:46;14.03;;;10.20;;
10910;SDS011;5508;49.150;11.030;2022-12-07T10:15:02;13.33;;;9.40;;
10910;SDS011;5508;49.150;11.030;2022-12-07T10:18:14;15.40;;;11.37;;
10910;SDS011;5508;49.150;11.030;2022-12-07T10:21:38;11.40;;;9.40;;
10910;SDS011;5508;49.150;11.030;2022-12-07T10:24:39;13.43;;;10.00;;
10910;SDS011;5508;49.150;11.030;2022-12-07T10:27:42;14.57;;;10.97;;
10910;SDS011;5508;49.150;11.030;2022-12-07T10:30:57;11.27;;;8.80;;
10910;SDS011;5508;49.150;11.030;2022-12-07T10:34:02;10.43;;;8.20;;
10910;SDS011;5508;49.150;11.030;2022-12-07T10:40:25;12.13;;;9.30;;
10910;SDS011;5508;49.150;11.030;2022-12-07T10:43:33;13.40;;;10.07;;
10910;SDS011;5508;49.150;11.030;2022-12-07T10:46:53;12.93;;;9.27;;
10910;SDS011;5508;49.150;11.030;2022-12-07T10:50:17;32.30;;;21.80;;
10910;SDS011;5508;49.150;11.030;2022-12-07T10:57:51;14.93;;;11.20;;
10910;SDS011;5508;49.150;11.030;2022-12-07T11:00:37;14.77;;;10.23;;
10910;SDS011;5508;49.150;11.030;2022-12-07T11:07:20;12.47;;;9.00;;
10910;SDS011;5508;49.150;11.030;2022-12-07T11:10:43;13.33;;;9.20;;
10910;SDS011;5508;49.150;11.030;2022-12-07T11:13:53;12.37;;;9.07;;
10910;SDS011;5508;49.150;11.030;2022-12-07T11:20:37;9.63;;;7.77;;
10910;SDS011;5508;49.150;11.030;2022-12-07T11:23:48;9.07;;;6.70;;
10910;SDS011;5508;49.150;11.030;2022-12-07T11:34:00;11.97;;;8.77;;
10910;SDS011;5508;49.150;11.030;2022-12-07T11:37:31;10.80;;;8.53;;
10910;SDS011;5508;49.150;11.030;2022-12-07T11:40:37;11.80;;;7.80;;
10910;SDS011;5508;49.150;11.030;2022-12-07T11:44:04;10.87;;;8.20;;
10910;SDS011;5508;49.150;11.030;2022-12-07T11:48:08;12.07;;;8.07;;
10910;SDS011;5508;49.150;11.030;2022-12-07T11:56:59;9.00;;;6.93;;
10910;SDS011;5508;49.150;11.030;2022-12-07T12:00:20;8.33;;;7.00;;
10910;SDS011;5508;49.150;11.030;2022-12-07T12:03:24;8.33;;;6.93;;
10910;SDS011;5508;49.150;11.030;2022-12-07T12:06:31;8.27;;;7.20;;
10910;SDS011;5508;49.150;11.030;2022-12-07T12:09:36;11.33;;;8.60;;
10910;SDS011;5508;49.150;11.030;2022-12-07T12:13:09;11.23;;;8.57;;
10910;SDS011;5508;49.150;11.030;2022-12-07T12:23:25;11.17;;;8.60;;
10910;SDS011;5508;49.150;11.030;2022-12-07T12:26:29;11.37;;;8.63;;
10910;SDS011;5508;49.150;11.030;2022-12-07T12:29:36;9.80;;;7.97;;
10910;SDS011;5508;49.150;11.030;2022-12-07T12:32:40;8.63;;;7.10;;
10910;SDS011;5508;49.150;11.030;2022-12-07T12:35:42;10.50;;;8.47;;
10910;SDS011;5508;49.150;11.030;2022-12-07T12:41:58;10.80;;;8.27;;
10910;SDS011;5508;49.150;11.030;2022-12-07T12:45:03;12.17;;;9.10;;
10910;SDS011;5508;49.150;11.030;2022-12-07T12:48:29;10.37;;;8.13;;
10910;SDS011;5508;49.150;11.030;2022-12-07T12:51:37;10.53;;;8.90;;
10910;SDS011;5508;49.150;11.030;2022-12-07T12:54:57;11.07;;;9.13;;
10910;SDS011;5508;49.150;11.030;2022-12-07T13:04:49;8.77;;;7.37;;
10910;SDS011;5508;49.150;11.030;2022-12-07T13:10:55;9.23;;;7.70;;
10910;SDS011;5508;49.150;11.030;2022-12-07T13:14:39;13.43;;;8.60;;
10910;SDS011;5508;49.150;11.030;2022-12-07T13:20:44;14.80;;;10.13;;
10910;SDS011;5508;49.150;11.030;2022-12-07T13:26:51;8.30;;;7.40;;
10910;SDS011;5508;49.150;11.030;2022-12-07T13:29:56;10.43;;;8.50;;
10910;SDS011;5508;49.150;11.030;2022-12-07T13:32:58;9.87;;;7.40;;
10910;SDS011;5508;49.150;11.030;2022-12-07T13:35:59;10.57;;;8.83;;
10910;SDS011;5508;49.150;11.030;2022-12-07T13:39:10;8.97;;;7.30;;
10910;SDS011;5508;49.150;11.030;2022-12-07T13:42:27;11.23;;;9.20;;
10910;SDS011;5508;49.150;11.030;2022-12-07T13:45:30;18.50;;;13.80;;
10910;SDS011;5508;49.150;11.030;2022-12-07T13:48:48;9.07;;;7.33;;
10910;SDS011;5508;49.150;11.030;2022-12-07T13:51:50;13.30;;;9.47;;
10910;SDS011;5508;49.150;11.030;2022-12-07T13:55:05;14.40;;;9.93;;
10910;SDS011;5508;49.150;11.030;2022-12-07T13:58:14;13.90;;;9.77;;
10910;SDS011;5508;49.150;11.030;2022-12-07T14:01:15;13.40;;;9.90;;
10910;SDS011;5508;49.150;11.030;2022-12-07T14:04:17;19.50;;;15.40;;
10910;SDS011;5508;49.150;11.030;2022-12-07T14:07:32;17.57;;;13.70;;
10910;SDS011;5508;49.150;11.030;2022-12-07T14:10:41;12.83;;;11.17;;
10910;SDS011;5508;49.150;11.030;2022-12-07T14:17:00;11.53;;;9.13;;
10910;SDS011;5508;49.150;11.030;2022-12-07T14:27:16;12.77;;;10.20;;
10910;SDS011;5508;49.150;11.030;2022-12-07T14:30:22;12.67;;;10.83;;
10910;SDS011;5508;49.150;11.030;2022-12-07T14:33:24;15.40;;;11.67;;
10910;SDS011;5508;49.150;11.030;2022-12-07T14:36:25;12.83;;;10.57;;
10910;SDS011;5508;49.150;11.030;2022-12-07T14:39:25;13.63;;;11.30;;
10910;SDS011;5508;49.150;11.030;2022-12-07T14:42:27;13.13;;;10.20;;
10910;SDS011;5508;49.150;11.030;2022-12-07T14:45:29;15.33;;;11.73;;
10910;SDS011;5508;49.150;11.030;2022-12-07T14:48:30;25.07;;;15.00;;
10910;SDS011;5508;49.150;11.030;2022-12-07T14:51:31;17.53;;;13.30;;
10910;SDS011;5508;49.150;11.030;2022-12-07T14:54:33;12.97;;;10.30;;
10910;SDS011;5508;49.150;11.030;2022-12-07T14:57:33;15.73;;;12.33;;
10910;SDS011;5508;49.150;11.030;2022-12-07T15:00:34;14.53;;;11.37;;
10910;SDS011;5508;49.150;11.030;2022-12-07T15:03:35;12.40;;;10.57;;
10910;SDS011;5508;49.150;11.030;2022-12-07T15:06:38;13.77;;;10.37;;
10910;SDS011;5508;49.150;11.030;2022-12-07T15:09:38;16.87;;;11.50;;
10910;SDS011;5508;49.150;11.030;2022-12-07T15:12:39;16.47;;;12.03;;
10910;SDS011;5508;49.150;11.030;2022-12-07T15:15:39;16.93;;;11.43;;
10910;SDS011;5508;49.150;11.030;2022-12-07T15:18:40;15.07;;;10.53;;
10910;SDS011;5508;49.150;11.030;2022-12-07T15:21:41;14.13;;;10.43;;
10910;SDS011;5508;49.150;11.030;2022-12-07T15:24:41;14.73;;;13.13;;
10910;SDS011;5508;49.150;11.030;2022-12-07T15:27:42;19.67;;;13.83;;
10910;SDS011;5508;49.150;11.030;2022-12-07T15:30:43;15.57;;;12.30;;
10910;SDS011;5508;49.150;11.030;2022-12-07T15:33:44;14.97;;;12.47;;
10910;SDS011;5508;49.150;11.030;2022-12-07T15:36:46;12.23;;;10.23;;
10910;SDS011;5508;49.150;11.030;2022-12-07T15:39:46;14.37;;;10.87;;
10910;SDS011;5508;49.150;11.030;2022-12-07T15:42:47;24.03;;;17.83;;
10910;SDS011;5508;49.150;11.030;2022-12-07T15:45:49;16.33;;;12.67;;
10910;SDS011;5508;49.150;11.030;2022-12-07T15:48:50;14.43;;;11.20;;
10910;SDS011;5508;49.150;11.030;2022-12-07T15:51:50;18.23;;;12.47;;
10910;SDS011;5508;49.150;11.030;2022-12-07T15:54:51;18.23;;;11.73;;
10910;SDS011;5508;49.150;11.030;2022-12-07T15:57:51;17.90;;;13.87;;
10910;SDS011;5508;49.150;11.030;2022-12-07T16:00:52;14.10;;;10.97;;
10910;SDS011;5508;49.150;11.030;2022-12-07T16:03:53;13.27;;;10.67;;
10910;SDS011;5508;49.150;11.030;2022-12-07T16:06:54;12.53;;;9.93;;
10910;SDS011;5508;49.150;11.030;2022-12-07T16:09:54;15.57;;;11.30;;
10910;SDS011;5508;49.150;11.030;2022-12-07T16:12:55;13.00;;;10.50;;
10910;SDS011;5508;49.150;11.030;2022-12-07T16:15:55;15.97;;;11.37;;
10910;SDS011;5508;49.150;11.030;2022-12-07T16:18:56;15.53;;;12.13;;
10910;SDS011;5508;49.150;11.030;2022-12-07T16:21:57;16.20;;;14.50;;
10910;SDS011;5508;49.150;11.030;2022-12-07T16:24:59;21.07;;;13.33;;
10910;SDS011;5508;49.150;11.030;2022-12-07T16:27:59;16.67;;;13.50;;
10910;SDS011;5508;49.150;11.030;2022-12-07T16:31:07;15.40;;;13.53;;
10910;SDS011;5508;49.150;11.030;2022-12-07T16:34:12;20.30;;;17.87;;
10910;SDS011;5508;49.150;11.030;2022-12-07T16:37:13;13.97;;;11.03;;
10910;SDS011;5508;49.150;11.030;2022-12-07T16:40:14;18.07;;;12.63;;
10910;SDS011;5508;49.150;11.030;2022-12-07T16:43:14;17.07;;;13.43;;
10910;SDS011;5508;49.150;11.030;2022-12-07T16:46:16;17.40;;;13.90;;
10910;SDS011;5508;49.150;11.030;2022-12-07T16:49:17;20.97;;;16.27;;
10910;SDS011;5508;49.150;11.030;2022-12-07T16:52:19;18.20;;;14.00;;
10910;SDS011;5508;49.150;11.030;2022-12-07T16:55:20;18.83;;;14.53;;
10910;SDS011;5508;49.150;11.030;2022-12-07T16:58:21;17.40;;;14.07;;
10910;SDS011;5508;49.150;11.030;2022-12-07T17:01:21;19.10;;;14.70;;
10910;SDS011;5508;49.150;11.030;2022-12-07T17:04:22;24.80;;;19.00;;
10910;SDS011;5508;49.150;11.030;2022-12-07T17:07:23;19.27;;;14.97;;
10910;SDS011;5508;49.150;11.030;2022-12-07T17:10:24;17.80;;;14.33;;
10910;SDS011;5508;49.150;11.030;2022-12-07T17:13:25;17.10;;;13.77;;
10910;SDS011;5508;49.150;11.030;2022-12-07T17:16:44;20.80;;;15.27;;
10910;SDS011;5508;49.150;11.030;2022-12-07T17:19:45;17.40;;;13.43;;
10910;SDS011;5508;49.150;11.030;2022-12-07T17:22:46;16.97;;;13.40;;
10910;SDS011;5508;49.150;11.030;2022-12-07T17:25:47;17.77;;;13.03;;
10910;SDS011;5508;49.150;11.030;2022-12-07T17:28:47;20.23;;;14.30;;
10910;SDS011;5508;49.150;11.030;2022-12-07T17:31:48;19.60;;;14.37;;
10910;SDS011;5508;49.150;11.030;2022-12-07T17:34:49;14.97;;;12.20;;
10910;SDS011;5508;49.150;11.030;2022-12-07T17:37:49;17.53;;;13.83;;
10910;SDS011;5508;49.150;11.030;2022-12-07T17:40:50;14.50;;;11.67;;
10910;SDS011;5508;49.150;11.030;2022-12-07T17:43:51;19.80;;;14.90;;
10910;SDS011;5508;49.150;11.030;2022-12-07T17:46:52;28.70;;;20.33;;
10910;SDS011;5508;49.150;11.030;2022-12-07T17:49:54;70.73;;;45.30;;
10910;SDS011;5508;49.150;11.030;2022-12-07T17:52:55;17.30;;;13.07;;
10910;SDS011;5508;49.150;11.030;2022-12-07T17:56:10;26.57;;;18.20;;
10910;SDS011;5508;49.150;11.030;2022-12-07T17:59:11;21.33;;;16.17;;
10910;SDS011;5508;49.150;11.030;2022-12-07T18:02:12;21.73;;;16.87;;
10910;SDS011;5508;49.150;11.030;2022-12-07T18:05:12;34.57;;;24.43;;
10910;SDS011;5508;49.150;11.030;2022-12-07T18:08:13;21.03;;;16.03;;
10910;SDS011;5508;49.150;11.030;2022-12-07T18:11:14;22.53;;;16.70;;
10910;SDS011;5508;49.150;11.030;2022-12-07T18:14:14;21.40;;;15.97;;
10910;SDS011;5508;49.150;11.030;2022-12-07T18:17:16;20.30;;;12.83;;
10910;SDS011;5508;49.150;11.030;2022-12-07T18:20:17;17.33;;;13.07;;
10910;SDS011;5508;49.150;11.030;2022-12-07T18:23:17;17.77;;;14.53;;
10910;SDS011;5508;49.150;11.030;2022-12-07T18:26:20;21.10;;;14.43;;
10910;SDS011;5508;49.150;11.030;2022-12-07T18:29:22;22.17;;;14.67;;
10910;SDS011;5508;49.150;11.030;2022-12-07T18:32:22;19.07;;;14.30;;
10910;SDS011;5508;49.150;11.030;2022-12-07T18:35:23;18.03;;;13.90;;
10910;SDS011;5508;49.150;11.030;2022-12-07T18:38:24;17.00;;;12.97;;
10910;SDS011;5508;49.150;11.030;2022-12-07T18:41:26;17.90;;;13.07;;
10910;SDS011;5508;49.150;11.030;2022-12-07T18:44:27;24.07;;;18.00;;
10910;SDS011;5508;49.150;11.030;2022-12-07T18:47:27;26.90;;;17.57;;
10910;SDS011;5508;49.150;11.030;2022-12-07T18:50:28;24.80;;;19.30;;
10910;SDS011;5508;49.150;11.030;2022-12-07T18:53:29;38.27;;;27.77;;
10910;SDS011;5508;49.150;11.030;2022-12-07T18:56:31;32.77;;;22.17;;
10910;SDS011;5508;49.150;11.030;2022-12-07T18:59:32;15.87;;;13.17;;
10910;SDS011;5508;49.150;11.030;2022-12-07T19:02:49;27.03;;;21.53;;
10910;SDS011;5508;49.150;11.030;2022-12-07T19:05:50;20.37;;;14.03;;
10910;SDS011;5508;49.150;11.030;2022-12-07T19:08:51;19.13;;;14.03;;
10910;SDS011;5508;49.150;11.030;2022-12-07T19:11:53;25.63;;;18.67;;
10910;SDS011;5508;49.150;11.030;2022-12-07T19:14:55;32.20;;;21.27;;
10910;SDS011;5508;49.150;11.030;2022-12-07T19:17:55;48.60;;;32.17;;
10910;SDS011;5508;49.150;11.030;2022-12-07T19:20:56;17.87;;;13.43;;
10910;SDS011;5508;49.150;11.030;2022-12-07T19:23:57;29.07;;;20.60;;
10910;SDS011;5508;49.150;11.030;2022-12-07T19:26:57;24.93;;;17.40;;
10910;SDS011;5508;49.150;11.030;2022-12-07T19:29:58;18.50;;;11.80;;
10910;SDS011;5508;49.150;11.030;2022-12-07T19:32:59;23.03;;;16.30;;